Marlinton, WV

8:25 AM EDT on March 31, 2015 (GMT -0400)
Elkins-Randolph County | | Change Station
CLOSE
Current Station
Airport
Location: Elkins,
Elevation: 1978 ft
Nearby Weather Stations

Elev 1978 ft 38.89 °N, 79.85 °W | Updated 34 minutes ago

Clear
Clear
35 °F
Feels Like 35 °F
N
0
Wind Variable Wind from North

Today
High -- | Low -- °F
--% Chance of Precip.
Yesterday
High -- | Low -- °F
Precip. -- in
7:07 AM 7:42 PM
Waxing Gibbous, 86% visible
Pressure 29.94 in
Visibility 10.0 miles
Clouds Few 4400 ft
Mostly Cloudy 11000 ft
Dew Point 29 °F
Humidity 78%
Rainfall 0.00 in
Snow Depth Not available.
UV 0 out of 12
Pollen 10.40 out of 12
Air Quality Not available.
Flu Activity Not available.
METAR KEKN 311151Z AUTO 00000KT 10SM FEW044 BKN110 02/M02 A2990 RMK AO2 RAB34E43 SLP139 P0000 60000 T00171017 10078 20000 58015 TSNO

More Conditions Fewer Conditions

Pressure 29.94 in
Visibility 10.0 miles
Clouds Few 4400 ft
Mostly Cloudy 11000 ft
Dew Point 29 °F
Humidity 78%
Rainfall 0.00 in
Snow Depth Not available.
UV 0 out of 12
Pollen 10.40 out of 12
Air Quality Not available.
Flu Activity Not available.
METAR KEKN 311151Z AUTO 00000KT 10SM FEW044 BKN110 02/M02 A2990 RMK AO2 RAB34E43 SLP139 P0000 60000 T00171017 10078 20000 58015 TSNO

More Conditions Fewer Conditions

10-Day Weather Forecast

Almanac

Astronomy

Mar. 31, 2015 Rise Set
Actual Time
Civil Twilight
Nautical Twilight
Astronomical Twilight
Moon
Length of Visible Light
Length of Day
Tomorrow will be .
, % of the Moon is Illuminated

Today's Extremes

State Highs State Lows

Community

WunderPhotos

Upload Photos

1,809,753 photos uploaded!

WunderBlogs® & News

Nearby

Air Quality

  Air Quality AQ Index Pollutant
Not available.

Snow Depth

Station Depth Elevation

Earthquake Activity

City Distance Mag. Time & Date
Minimum magnitude displayed is 2.5.

Coastal Water Temperatures

Place Temperature

Stations

Nearby Weather Stations

Station Location Temp. Windchill Dew Point Humidity Wind Precip. Elev Updated Type